Bunker Hill, KS (67626)

05:19 AM CDT del 21 Ottobre 2014 (GMT -0500)
Russell Municipal | Change Station
CLOSE
Current Station
Aeroporto
Location: Russell,
Altitudine: 1864 ft
Stazioni meteo nelle vicinanze

Alt. 1864 ft 38.87 °N, 98.81 °W | Updated 26 minutes ago

Sereno
Sereno
49 °F
Sembra 49 °F
N
8
Vento Variabile Vento da Sud

Oggi
Massima -- | Minima -- °F
--% Possibilità di precip.
Ieri
Massima -- | Minima -- °F
Precip. -- in
7:50 AM 6:47 PM
Luna calante, 6% visible
Pressione 30.05 in
Visibilità 10.0 miglia
Nuvole Sereno
Punto di rugiada 42 °F
Umidità 77%
Piovosità 0.00 in
Spessore del manto nevoso Non disponibile.
Raggi UV 0 fuori da 12
Polline 3.00 fuori da 12
Qualità dell'aria Non disponibile.
Flu Activity No Activity
METAR KRSL 210953Z AUTO 17007KT 10SM CLR 09/06 A3007 RMK AO2 SLP174 T00940056

More Conditions Fewer Conditions

Pressione 30.05 in
Visibilità 10.0 miglia
Nuvole Sereno
Punto di rugiada 42 °F
Umidità 77%
Piovosità 0.00 in
Spessore del manto nevoso Non disponibile.
Raggi UV 0 fuori da 12
Polline 3.00 fuori da 12
Qualità dell'aria Non disponibile.
Flu Activity No Activity
METAR KRSL 210953Z AUTO 17007KT 10SM CLR 09/06 A3007 RMK AO2 SLP174 T00940056

More Conditions Fewer Conditions

10-Day Weather Forecast

Almanac

Astronomia

Oct. 21, 2014 Alba Tramonto
Ora attuale 07:50 CDT 18:47 CDT
Crepuscolo civile 07:23 CDT 19:14 CDT
Crepuscolo nautico 06:52 CDT 19:45 CDT
Crepuscolo astronomico 06:21 CDT 20:16 CDT
Luna 05:37 CDT 17:41 CDT
Estensione della luce visibile 11h 51m
Lunghezza del giorno
10h 57m
Tomorrow will be 2m 22s shorter.
Luna calante, 6% of the Moon is Illuminated
Oggi
Luna calante
Ott 23
Nuovo
Ott 30
Primo quarto
Nov 6
Luna piena
Nov 14
Ultimo quarto

Gli estremi di oggi

State Highs State Lows

Community

WunderPhotos

Upload Photos

1,763,625 foto caricate!

Nearby

Profondità neve

Stazione Profondità Altitudine
Non sono state evidenziate nuove nevicate

Attività sismica

Città  Distanza Mag. Data & Ora
Anthony, Kansas 130 miglia 2.6 18:30 CDT
2014-10-20
Anthony, Kansas 130 miglia 2.6 16:33 CDT
2014-10-20
Anthony, Kansas 130 miglia 3.1 09:25 CDT
2014-10-20
Minimo Magnitudo Mostrato è 2.5.

Temperature delle acque costiere

Località Temperatura
Nessun dato dalle stazioni

Stazioni meteo nelle vicinanze